createdAt,value
2023-03-20T00:02:22.201Z,71.78
2023-03-20T00:05:26.542Z,71.36
2023-03-20T00:08:11.986Z,71.68
2023-03-20T00:10:59.050Z,71.68
2023-03-20T00:13:44.351Z,72.00
2023-03-20T00:16:49.187Z,72.46
2023-03-20T00:19:34.834Z,72.12
2023-03-20T00:22:20.461Z,72.30
2023-03-20T00:25:06.496Z,72.13
2023-03-20T00:27:52.201Z,72.61
2023-03-20T00:30:37.603Z,72.45
2023-03-20T00:33:22.814Z,72.24
2023-03-20T00:36:09.531Z,72.01
2023-03-20T00:38:55.519Z,71.33
2023-03-20T00:41:52.707Z,71.52
2023-03-20T00:44:50.171Z,71.55
2023-03-20T00:47:37.647Z,71.78
2023-03-20T00:50:28.282Z,72.28
2023-03-20T00:53:13.469Z,72.75
2023-03-20T00:55:59.496Z,73.11
2023-03-20T00:58:44.615Z,73.20
2023-03-20T01:01:31.392Z,73.47
2023-03-20T01:04:19.435Z,74.39
2023-03-20T01:07:06.007Z,74.57
2023-03-20T01:09:51.211Z,75.35
2023-03-20T01:12:38.923Z,75.56
2023-03-20T01:15:31.539Z,76.06
2023-03-20T01:18:18.287Z,75.37
2023-03-20T01:21:03.610Z,75.06
2023-03-20T01:23:49.722Z,74.55
2023-03-20T01:26:39.525Z,76.07
2023-03-20T01:29:26.622Z,75.04
2023-03-20T01:32:14.961Z,74.76
2023-03-20T01:35:01.181Z,74.29
2023-03-20T01:37:46.991Z,74.24
2023-03-20T01:40:43.400Z,74.60
2023-03-20T01:43:29.748Z,75.80
2023-03-20T01:46:17.168Z,75.82
2023-03-20T01:49:28.439Z,75.62
2023-03-20T01:52:17.281Z,75.95
2023-03-20T01:55:02.458Z,76.23
2023-03-20T01:57:48.943Z,76.16
2023-03-20T02:00:35.613Z,75.75
2023-03-20T02:03:23.025Z,75.44
2023-03-20T02:06:19.563Z,75.33
2023-03-20T02:09:23.790Z,75.07
2023-03-20T02:12:10.952Z,75.00
2023-03-20T02:14:57.628Z,74.92
2023-03-20T02:18:05.422Z,74.63
2023-03-20T02:21:13.841Z,74.62
2023-03-20T02:24:14.497Z,74.09
2023-03-20T02:27:12.019Z,74.23
2023-03-20T02:30:18.299Z,74.12
2023-03-20T02:33:25.553Z,73.83
2023-03-20T02:36:40.765Z,73.96
2023-03-20T02:39:50.924Z,73.64
2023-03-20T02:43:02.553Z,74.08
2023-03-20T02:45:59.274Z,74.07
2023-03-20T02:48:53.738Z,74.99
2023-03-20T02:52:00.223Z,75.20
2023-03-20T02:54:54.470Z,75.14
2023-03-20T02:57:39.915Z,75.38
2023-03-20T03:00:36.642Z,75.58
2023-03-20T03:03:37.054Z,76.35
2023-03-20T03:06:28.288Z,76.69
2023-03-20T03:09:19.865Z,76.53
2023-03-20T03:12:12.384Z,75.68
2023-03-20T03:15:03.806Z,76.44
2023-03-20T03:17:49.514Z,76.18
2023-03-20T03:20:39.582Z,76.31
2023-03-20T03:23:46.737Z,76.58
2023-03-20T03:26:38.416Z,76.01
2023-03-20T03:29:26.162Z,76.67
2023-03-20T03:32:35.712Z,76.51
2023-03-20T03:35:22.433Z,76.55
2023-03-20T03:38:37.047Z,77.00
2023-03-20T03:41:25.044Z,77.50
2023-03-20T03:44:21.799Z,77.74
2023-03-20T03:47:12.745Z,77.85
2023-03-20T03:50:04.601Z,78.04
2023-03-20T03:52:51.890Z,77.99
2023-03-20T03:55:45.750Z,78.20
2023-03-20T03:58:36.087Z,78.19
2023-03-20T04:01:23.916Z,77.86
2023-03-20T04:04:10.563Z,78.28
2023-03-20T04:06:56.419Z,78.58
2023-03-20T04:09:42.093Z,78.92
2023-03-20T04:12:37.775Z,78.86
2023-03-20T04:15:24.582Z,78.98
2023-03-20T04:18:17.763Z,79.02
2023-03-20T04:21:04.605Z,79.32
2023-03-20T04:23:50.311Z,79.48
2023-03-20T04:26:36.089Z,80.35
2023-03-20T04:29:21.715Z,79.70
2023-03-20T04:32:17.999Z,79.35
2023-03-20T04:35:27.076Z,79.01
2023-03-20T04:38:20.788Z,78.96
2023-03-20T04:41:07.337Z,78.92
2023-03-20T04:43:52.706Z,78.69
2023-03-20T04:46:37.914Z,78.65
2023-03-20T04:49:31.672Z,78.80
2023-03-20T04:52:17.403Z,79.68
2023-03-20T04:55:04.455Z,79.37
2023-03-20T04:57:50.851Z,80.14
2023-03-20T05:00:36.169Z,80.43
2023-03-20T05:03:23.961Z,80.04
2023-03-20T05:06:10.500Z,79.87
2023-03-20T05:09:00.115Z,79.56
2023-03-20T05:11:47.352Z,79.09
2023-03-20T05:14:52.889Z,78.78
2023-03-20T05:17:57.056Z,78.93
2023-03-20T05:20:53.092Z,78.93
2023-03-20T05:23:51.727Z,78.87
2023-03-20T05:26:55.170Z,78.44
2023-03-20T05:30:00.838Z,79.20
2023-03-20T05:33:15.713Z,79.09
2023-03-20T05:36:11.990Z,78.82
2023-03-20T05:39:27.129Z,78.99
2023-03-20T05:42:18.608Z,79.45
2023-03-20T05:45:24.799Z,79.76
2023-03-20T05:48:49.007Z,79.88
2023-03-20T05:52:02.786Z,79.49
2023-03-20T05:55:11.267Z,79.31
2023-03-20T05:58:06.064Z,79.30
2023-03-20T06:01:22.024Z,79.38
2023-03-20T06:04:07.452Z,79.85
2023-03-20T06:07:08.595Z,79.59
2023-03-20T06:09:55.878Z,79.19
2023-03-20T06:12:41.531Z,79.72
2023-03-20T06:15:28.329Z,80.32
2023-03-20T06:18:20.943Z,80.74
2023-03-20T06:21:06.836Z,81.09
2023-03-20T06:23:52.384Z,81.49
2023-03-20T06:26:40.504Z,80.45
2023-03-20T06:29:29.232Z,80.90
2023-03-20T06:32:23.841Z,80.76
2023-03-20T06:35:11.433Z,81.28
2023-03-20T06:38:02.099Z,80.90
2023-03-20T06:40:47.451Z,80.32
2023-03-20T06:43:36.276Z,81.09
2023-03-20T06:46:21.804Z,80.85
2023-03-20T06:49:07.340Z,80.88
2023-03-20T06:51:53.971Z,81.25
2023-03-20T06:54:44.710Z,81.16
2023-03-20T06:57:30.030Z,80.91
2023-03-20T07:00:16.091Z,80.81
2023-03-20T07:03:02.443Z,80.79
2023-03-20T07:05:48.108Z,80.71
2023-03-20T07:08:35.339Z,81.06
2023-03-20T07:11:21.140Z,82.32
2023-03-20T07:14:07.479Z,82.79
2023-03-20T07:17:03.994Z,82.74
2023-03-20T07:19:51.353Z,82.43
2023-03-20T07:22:37.007Z,81.73
2023-03-20T07:25:42.263Z,81.52
2023-03-20T07:28:30.886Z,80.86
2023-03-20T07:31:29.051Z,80.52
2023-03-20T07:34:27.505Z,79.77
2023-03-20T07:37:14.282Z,79.41
2023-03-20T07:40:05.836Z,79.40
2023-03-20T07:42:53.404Z,79.73
2023-03-20T07:46:06.534Z,80.12
2023-03-20T07:48:52.899Z,80.42
2023-03-20T07:51:38.423Z,80.51
2023-03-20T07:54:24.419Z,80.35
2023-03-20T07:57:09.949Z,80.62
2023-03-20T07:59:55.093Z,80.14
2023-03-20T08:02:40.613Z,81.02
2023-03-20T08:05:26.122Z,81.62
2023-03-20T08:08:11.670Z,80.77
2023-03-20T08:10:57.371Z,80.91
2023-03-20T08:13:43.055Z,81.40
2023-03-20T08:16:28.183Z,81.13
2023-03-20T08:19:13.703Z,81.23
2023-03-20T08:21:59.025Z,81.01
2023-03-20T08:24:44.532Z,81.44
2023-03-20T08:27:30.215Z,81.34
2023-03-20T08:30:15.824Z,82.19
2023-03-20T08:33:01.054Z,81.89
2023-03-20T08:35:59.192Z,81.94
2023-03-20T08:38:44.532Z,82.46
2023-03-20T08:41:29.635Z,81.50
2023-03-20T08:44:14.814Z,81.22
2023-03-20T08:47:00.239Z,80.55
2023-03-20T08:49:45.665Z,80.95
2023-03-20T08:52:30.889Z,80.73
2023-03-20T08:55:16.549Z,80.63
2023-03-20T08:58:02.282Z,80.97
2023-03-20T09:00:47.866Z,80.78
2023-03-20T09:03:33.256Z,80.31
2023-03-20T09:06:18.777Z,80.61
2023-03-20T09:09:05.021Z,80.93
2023-03-20T09:11:50.446Z,81.27
2023-03-20T09:14:35.753Z,81.81
2023-03-20T09:17:21.201Z,83.55
2023-03-20T09:20:06.951Z,83.65
2023-03-20T09:22:52.372Z,84.89
2023-03-20T09:25:38.065Z,84.49
2023-03-20T09:28:23.680Z,83.34
2023-03-20T09:31:09.394Z,83.67
2023-03-20T09:33:55.082Z,83.15
2023-03-20T09:36:40.276Z,84.15
2023-03-20T09:39:25.579Z,83.92
2023-03-20T09:42:16.431Z,83.75
2023-03-20T09:45:37.263Z,84.49
2023-03-20T09:48:35.284Z,84.53
2023-03-20T09:51:36.023Z,84.38
2023-03-20T09:54:43.379Z,84.06
2023-03-20T09:57:41.357Z,85.86
2023-03-20T10:00:29.447Z,84.94
2023-03-20T10:03:39.106Z,85.23
2023-03-20T10:06:24.518Z,85.61
2023-03-20T10:09:25.159Z,85.35
2023-03-20T10:12:34.126Z,86.26
2023-03-20T10:15:28.702Z,86.18
2023-03-20T10:18:24.808Z,86.09
2023-03-20T10:21:17.521Z,86.05
2023-03-20T10:24:06.186Z,85.79
2023-03-20T10:26:55.659Z,86.24
2023-03-20T10:30:02.956Z,86.08
2023-03-20T10:33:00.679Z,87.28
2023-03-20T10:36:04.171Z,86.30
2023-03-20T10:39:11.072Z,84.37
2023-03-20T10:42:00.801Z,83.32
2023-03-20T10:44:54.339Z,82.87
2023-03-20T10:47:42.495Z,83.71
2023-03-20T10:50:40.199Z,83.08
2023-03-20T10:53:31.533Z,83.03
2023-03-20T10:56:29.054Z,83.39
2023-03-20T10:59:27.645Z,81.85
2023-03-20T11:02:14.960Z,81.63
2023-03-20T11:05:02.445Z,79.93
2023-03-20T11:07:51.926Z,79.04
2023-03-20T11:10:38.754Z,79.28
2023-03-20T11:13:39.263Z,80.43
2023-03-20T11:16:35.540Z,79.24
2023-03-20T11:19:23.553Z,78.81
2023-03-20T11:22:23.514Z,76.94
2023-03-20T11:25:24.908Z,76.81
2023-03-20T11:28:26.881Z,75.26
2023-03-20T11:31:27.604Z,74.51
2023-03-20T11:34:15.833Z,72.28
2023-03-20T11:37:10.508Z,74.08
2023-03-20T11:40:31.286Z,72.15
2023-03-20T11:43:25.098Z,68.09
2023-03-20T11:46:13.610Z,69.30
2023-03-20T11:49:05.921Z,70.66
2023-03-20T11:51:52.646Z,69.05
2023-03-20T11:54:45.815Z,68.79
2023-03-20T11:57:41.058Z,70.27
2023-03-20T12:00:38.029Z,68.98
2023-03-20T12:03:41.629Z,70.19
2023-03-20T12:06:37.459Z,67.88
2023-03-20T12:09:51.970Z,69.14
2023-03-20T12:12:56.711Z,67.28
2023-03-20T12:15:47.089Z,66.87
2023-03-20T12:18:38.899Z,66.19
2023-03-20T12:21:46.628Z,65.56
2023-03-20T12:24:45.179Z,66.36
2023-03-20T12:27:36.855Z,66.62
2023-03-20T12:31:04.087Z,65.78
2023-03-20T12:33:52.479Z,65.94
2023-03-20T12:36:41.591Z,66.10
2023-03-20T12:39:33.999Z,66.23
2023-03-20T12:42:49.624Z,64.92
2023-03-20T12:45:42.688Z,65.65
2023-03-20T12:48:41.540Z,64.86
2023-03-20T12:51:47.108Z,65.18
2023-03-20T12:54:51.050Z,65.89
2023-03-20T12:57:52.770Z,64.34
2023-03-20T13:00:46.007Z,64.42
2023-03-20T13:03:46.408Z,64.65
2023-03-20T13:06:52.692Z,64.34
2023-03-20T13:09:56.803Z,65.08
2023-03-20T13:13:16.268Z,64.34
2023-03-20T13:16:24.060Z,62.71
2023-03-20T13:19:25.999Z,61.92
2023-03-20T13:22:28.071Z,62.88
2023-03-20T13:25:40.823Z,63.08
2023-03-20T13:28:56.844Z,61.53
2023-03-20T13:32:01.141Z,61.90
2023-03-20T13:35:14.823Z,61.77
2023-03-20T13:38:12.166Z,60.92
2023-03-20T13:41:02.219Z,60.56
2023-03-20T13:43:51.147Z,59.25
2023-03-20T13:46:45.900Z,59.27
2023-03-20T13:49:38.426Z,60.28
2023-03-20T13:52:28.708Z,61.39
2023-03-20T13:55:24.020Z,59.72
2023-03-20T13:58:43.562Z,60.36
2023-03-20T14:01:46.062Z,61.08
2023-03-20T14:04:32.530Z,60.26
2023-03-20T14:07:30.118Z,58.24
2023-03-20T14:10:21.229Z,57.59
2023-03-20T14:13:19.135Z,58.85
2023-03-20T14:16:08.850Z,60.42
2023-03-20T14:19:06.343Z,58.24
2023-03-20T14:21:55.519Z,58.56
2023-03-20T14:24:50.884Z,60.68
2023-03-20T14:27:54.581Z,59.11
2023-03-20T14:30:39.872Z,59.27
2023-03-20T14:33:30.328Z,60.03
2023-03-20T14:36:21.432Z,60.89
2023-03-20T14:39:38.703Z,60.06
2023-03-20T14:42:39.716Z,58.23
2023-03-20T14:45:51.564Z,58.17
2023-03-20T14:48:50.589Z,57.84
2023-03-20T14:51:45.788Z,58.50
2023-03-20T14:54:31.058Z,58.56
2023-03-20T14:57:19.407Z,58.38
2023-03-20T15:00:05.775Z,58.27
2023-03-20T15:02:53.782Z,57.44
2023-03-20T15:05:41.112Z,57.56
2023-03-20T15:08:31.388Z,58.84
2023-03-20T15:11:17.376Z,57.37
2023-03-20T15:14:08.771Z,55.49
2023-03-20T15:16:58.921Z,56.81
2023-03-20T15:19:45.016Z,56.64
2023-03-20T15:22:30.391Z,57.05
2023-03-20T15:25:17.607Z,57.29
2023-03-20T15:28:07.923Z,56.54
2023-03-20T15:30:57.315Z,57.25
2023-03-20T15:33:42.914Z,57.12
2023-03-20T15:36:34.543Z,57.30
2023-03-20T15:39:23.286Z,56.90
2023-03-20T15:42:14.772Z,57.25
2023-03-20T15:45:00.222Z,57.33
2023-03-20T15:47:45.387Z,57.30
2023-03-20T15:50:38.642Z,58.18
2023-03-20T15:53:30.694Z,58.70
2023-03-20T15:56:19.728Z,58.18
2023-03-20T15:59:05.175Z,58.36
2023-03-20T16:01:55.611Z,57.80
2023-03-20T16:04:50.913Z,58.35
2023-03-20T16:07:36.215Z,56.92
2023-03-20T16:10:28.677Z,57.02
2023-03-20T16:13:15.309Z,57.74
2023-03-20T16:16:03.193Z,56.24
2023-03-20T16:18:49.348Z,56.32
2023-03-20T16:21:38.799Z,55.74
2023-03-20T16:24:30.736Z,56.70
2023-03-20T16:27:24.226Z,54.94
2023-03-20T16:30:16.679Z,54.27
2023-03-20T16:33:07.081Z,55.19
2023-03-20T16:35:52.481Z,53.92
2023-03-20T16:38:37.928Z,53.38
2023-03-20T16:41:34.866Z,54.98
2023-03-20T16:44:28.102Z,54.83
2023-03-20T16:47:13.718Z,54.48
2023-03-20T16:50:21.572Z,53.73
2023-03-20T16:53:16.101Z,54.13
2023-03-20T16:56:02.730Z,54.39
2023-03-20T16:58:47.974Z,54.00
2023-03-20T17:01:33.582Z,54.54
2023-03-20T17:04:33.570Z,54.50
2023-03-20T17:07:19.922Z,54.61
2023-03-20T17:10:17.733Z,54.54
2023-03-20T17:13:03.202Z,54.32
2023-03-20T17:15:48.483Z,54.07
2023-03-20T17:18:37.700Z,54.26
2023-03-20T17:21:22.841Z,53.73
2023-03-20T17:24:09.434Z,53.91
2023-03-20T17:26:55.645Z,54.66
2023-03-20T17:29:41.792Z,54.28
2023-03-20T17:32:27.274Z,55.32
2023-03-20T17:35:12.900Z,54.92
2023-03-20T17:37:59.559Z,54.96
2023-03-20T17:40:45.583Z,54.25
2023-03-20T17:43:31.210Z,54.78
2023-03-20T17:46:22.166Z,54.98
2023-03-20T17:49:13.577Z,54.05
2023-03-20T17:51:58.756Z,54.14
2023-03-20T17:54:45.035Z,54.43
2023-03-20T17:57:38.671Z,53.90
2023-03-20T18:00:24.546Z,54.31
2023-03-20T18:03:10.564Z,54.78
2023-03-20T18:05:56.215Z,55.23
2023-03-20T18:08:41.822Z,55.72
2023-03-20T18:11:28.013Z,56.14
2023-03-20T18:14:13.415Z,57.11
2023-03-20T18:17:01.593Z,57.23
2023-03-20T18:19:47.691Z,57.06
2023-03-20T18:22:33.160Z,57.94
2023-03-20T18:25:24.497Z,58.08
2023-03-20T18:28:15.500Z,58.27
2023-03-20T18:31:01.038Z,58.23
2023-03-20T18:33:52.336Z,57.45
2023-03-20T18:36:37.543Z,59.01
2023-03-20T18:39:24.449Z,58.18
2023-03-20T18:42:09.778Z,58.58
2023-03-20T18:44:54.946Z,59.48
2023-03-20T18:47:40.551Z,58.52
2023-03-20T18:50:32.074Z,58.93
2023-03-20T18:53:26.647Z,59.45
2023-03-20T18:56:18.280Z,59.74
2023-03-20T18:59:04.954Z,60.60
2023-03-20T19:01:53.530Z,61.28
2023-03-20T19:04:39.436Z,61.36
2023-03-20T19:07:24.846Z,61.68
2023-03-20T19:10:29.059Z,62.40
2023-03-20T19:13:17.783Z,62.11
2023-03-20T19:16:04.051Z,63.31
2023-03-20T19:18:49.284Z,63.35
2023-03-20T19:21:35.283Z,62.89
2023-03-20T19:24:20.520Z,62.83
2023-03-20T19:27:06.387Z,62.50
2023-03-20T19:29:51.757Z,62.20
2023-03-20T19:32:37.145Z,63.07
2023-03-20T19:38:29.422Z,64.05
2023-03-20T19:41:21.325Z,64.60
2023-03-20T19:44:07.744Z,65.10
2023-03-20T19:46:53.769Z,64.87
2023-03-20T19:49:39.449Z,64.74
2023-03-20T19:52:32.170Z,64.86
2023-03-20T19:55:17.560Z,65.81
2023-03-20T19:58:03.591Z,66.34
2023-03-20T20:01:11.620Z,65.57
2023-03-20T20:03:55.035Z,65.17
2023-03-20T20:06:42.760Z,64.88
2023-03-20T20:09:27.941Z,65.26
2023-03-20T20:12:13.927Z,64.56
2023-03-20T20:15:00.397Z,65.59
2023-03-20T20:17:47.581Z,65.32
2023-03-20T20:20:34.646Z,65.80
2023-03-20T20:23:26.150Z,65.26
2023-03-20T20:26:11.670Z,65.21
2023-03-20T20:28:59.869Z,64.97
2023-03-20T20:31:45.393Z,64.89
2023-03-20T20:40:45.500Z,65.34
2023-03-20T20:44:06.728Z,65.36
2023-03-20T20:46:36.061Z,64.95
2023-03-20T20:49:21.202Z,65.87
2023-03-20T20:52:07.481Z,65.72
2023-03-20T20:54:52.912Z,65.76
2023-03-20T20:57:38.472Z,65.45
2023-03-20T21:00:34.063Z,64.55
2023-03-20T21:03:26.858Z,64.70
2023-03-20T21:06:12.324Z,64.99
2023-03-20T21:08:57.513Z,65.43
2023-03-20T21:11:42.408Z,65.02
2023-03-20T21:14:27.524Z,66.41
2023-03-20T21:17:12.740Z,65.82
2023-03-20T21:19:58.136Z,65.50
2023-03-20T21:22:43.322Z,66.54
2023-03-20T21:25:39.545Z,66.46
2023-03-20T21:28:26.118Z,65.92
2023-03-20T21:31:24.491Z,65.71
2023-03-20T21:34:10.888Z,65.63
2023-03-20T21:36:59.642Z,66.38
2023-03-20T21:39:46.099Z,66.64
2023-03-20T21:42:31.312Z,67.10
2023-03-20T21:49:03.915Z,66.79
2023-03-20T21:58:17.344Z,65.75
2023-03-20T22:07:35.963Z,66.21
2023-03-20T22:10:39.788Z,66.45
2023-03-20T22:17:10.204Z,66.20
2023-03-20T22:20:07.185Z,66.32
2023-03-20T22:26:04.812Z,66.93
2023-03-20T22:32:20.776Z,67.07
2023-03-20T22:35:37.973Z,66.63
2023-03-20T22:47:04.970Z,66.81
2023-03-20T22:49:50.338Z,67.22
2023-03-20T22:52:48.279Z,67.00
2023-03-20T22:55:34.713Z,66.43
2023-03-20T22:58:20.143Z,66.42
2023-03-20T23:01:06.122Z,66.40
2023-03-20T23:03:51.158Z,66.29
2023-03-20T23:06:36.334Z,66.28
2023-03-20T23:09:21.506Z,65.85
2023-03-20T23:12:06.926Z,66.27
2023-03-20T23:14:52.427Z,66.21
2023-03-20T23:17:37.965Z,66.56
2023-03-20T23:20:23.474Z,66.45
2023-03-20T23:23:09.117Z,66.65
2023-03-20T23:26:03.397Z,66.49
2023-03-20T23:28:50.926Z,66.34
2023-03-20T23:31:36.324Z,66.87
2023-03-20T23:34:21.632Z,67.28
2023-03-20T23:37:06.845Z,67.45
2023-03-20T23:39:52.079Z,66.66
2023-03-20T23:42:37.657Z,67.12
2023-03-20T23:45:22.746Z,67.25
2023-03-20T23:48:08.222Z,66.95
2023-03-20T23:50:53.897Z,67.05
2023-03-20T23:53:39.002Z,66.99
2023-03-20T23:56:24.248Z,67.14
2023-03-20T23:59:20.543Z,67.01
